Time;durP1;ratioP1;P1;durP2;ratioP2;P2;SDS_P1;SDS_P2;PMS_P1;PMS_P2;Temp;Humidity;BMP_temperature;BMP_pressure;BME280_temperature;BME280_humidity;BME280_pressure;Samples;Min_cycle;Max_cycle;Signal;HPM_P1;HPM_P2
2024/01/26 00:01:08;;;;;;;71.97;37.55;;;;;;;;;;5137462;27;20046;-79
2024/01/26 00:03:34;;;;;;;69.97;37.65;;;;;;;;;;5156562;27;20038;-78
2024/01/26 00:06:00;;;;;;;67.90;38.45;;;;;;;;;;5120337;27;20091;-78
2024/01/26 00:08:26;;;;;;;71.82;39.22;;;;;;;;;;5138030;27;20091;-78
2024/01/26 00:10:52;;;;;;;77.43;40.85;;;;;;;;;;5138024;27;20049;-78
2024/01/26 00:13:18;;;;;;;68.50;38.45;;;;;;;;;;5137790;27;20061;-78
2024/01/26 00:15:49;;;;;;;70.07;37.28;;;;;;;;;;5137921;27;20095;-78
2024/01/26 00:18:15;;;;;;;65.72;37.67;;;;;;;;;;5156220;27;20043;-78
2024/01/26 00:20:41;;;;;;;66.97;39.13;;;;;;;;;;5155917;27;20447;-78
2024/01/26 00:23:07;;;;;;;67.07;37.08;;;;;;;;;;5137642;27;20390;-78
2024/01/26 00:25:33;;;;;;;62.92;35.80;;;;;;;;;;5137752;27;20035;-78
2024/01/26 00:28:00;;;;;;;62.55;37.00;;;;;;;;;;5155934;27;20095;-78
2024/01/26 00:30:26;;;;;;;65.63;37.75;;;;;;;;;;5155876;27;20095;-78
2024/01/26 00:32:52;;;;;;;63.97;35.08;;;;;;;;;;5155328;27;20122;-78
2024/01/26 00:35:18;;;;;;;65.78;39.10;;;;;;;;;;5137533;27;20389;-78
2024/01/26 00:37:44;;;;;;;59.30;35.80;;;;;;;;;;5120288;27;20050;-78
2024/01/26 00:40:11;;;;;;;65.47;38.00;;;;;;;;;;5137359;27;20039;-78
2024/01/26 00:42:37;;;;;;;61.50;36.85;;;;;;;;;;5137507;27;20073;-78
2024/01/26 00:45:03;;;;;;;62.15;37.80;;;;;;;;;;5155726;27;20098;-78
2024/01/26 00:47:30;;;;;;;52.13;31.15;;;;;;;;;;5137134;27;20043;-78
2024/01/26 00:49:56;;;;;;;60.45;36.78;;;;;;;;;;5103428;27;20093;-78
2024/01/26 00:52:22;;;;;;;64.40;39.10;;;;;;;;;;5136705;27;20051;-78
2024/01/26 00:54:48;;;;;;;62.97;39.10;;;;;;;;;;5137246;27;20057;-78
2024/01/26 00:57:14;;;;;;;56.75;35.25;;;;;;;;;;5155442;27;20066;-78
2024/01/26 00:59:40;;;;;;;60.60;37.95;;;;;;;;;;5155605;27;20093;-78
2024/01/26 01:02:06;;;;;;;61.90;37.72;;;;;;;;;;5136749;27;20049;-78
2024/01/26 01:04:33;;;;;;;61.63;37.67;;;;;;;;;;5124968;27;20047;-78
2024/01/26 01:06:59;;;;;;;55.45;35.78;;;;;;;;;;5115718;28;20051;-79
2024/01/26 01:09:25;;;;;;;59.45;37.08;;;;;;;;;;5115795;28;20506;-78
2024/01/26 01:11:52;;;;;;;64.35;38.13;;;;;;;;;;5099684;28;20054;-79
2024/01/26 01:14:18;;;;;;;57.65;35.88;;;;;;;;;;5134626;28;20043;-78
2024/01/26 01:16:45;;;;;;;71.00;42.15;;;;;;;;;;5116470;28;20475;-78
2024/01/26 01:19:11;;;;;;;56.22;34.28;;;;;;;;;;5134649;28;20047;-78
2024/01/26 01:21:37;;;;;;;59.40;36.55;;;;;;;;;;5116271;28;20395;-78
2024/01/26 01:24:04;;;;;;;60.53;38.08;;;;;;;;;;5116395;28;20047;-78
2024/01/26 01:26:30;;;;;;;63.30;38.55;;;;;;;;;;5116210;28;20596;-78
2024/01/26 01:28:56;;;;;;;53.78;36.08;;;;;;;;;;5116827;28;20062;-79
2024/01/26 01:31:22;;;;;;;58.05;38.00;;;;;;;;;;5115875;28;20114;-79
2024/01/26 01:33:48;;;;;;;64.80;39.80;;;;;;;;;;5099358;28;20043;-79
2024/01/26 01:36:14;;;;;;;55.30;36.97;;;;;;;;;;5116342;28;20047;-78
2024/01/26 01:38:40;;;;;;;55.78;36.15;;;;;;;;;;5116201;28;20101;-79
2024/01/26 01:41:06;;;;;;;55.25;36.55;;;;;;;;;;5134370;28;20051;-78
2024/01/26 01:43:32;;;;;;;57.83;35.92;;;;;;;;;;5116411;28;20043;-78
2024/01/26 01:45:58;;;;;;;58.15;37.78;;;;;;;;;;5133827;28;20534;-79
2024/01/26 01:48:25;;;;;;;57.60;36.28;;;;;;;;;;5134366;28;20104;-78
2024/01/26 01:50:51;;;;;;;51.83;35.47;;;;;;;;;;5134300;28;20402;-78
2024/01/26 01:53:17;;;;;;;54.17;35.45;;;;;;;;;;5115882;28;20046;-78
2024/01/26 01:55:44;;;;;;;54.90;35.33;;;;;;;;;;5134327;28;20047;-78
2024/01/26 01:58:10;;;;;;;50.55;34.65;;;;;;;;;;5115930;28;20078;-78
2024/01/26 02:00:41;;;;;;;47.20;33.25;;;;;;;;;;5134575;28;20107;-79
2024/01/26 02:03:07;;;;;;;52.17;32.53;;;;;;;;;;5136009;27;20035;-78
2024/01/26 02:05:34;;;;;;;49.22;33.35;;;;;;;;;;5102659;27;20047;-78
2024/01/26 02:08:00;;;;;;;51.60;35.20;;;;;;;;;;5119805;27;20152;-78
2024/01/26 02:10:26;;;;;;;48.28;34.20;;;;;;;;;;5119799;27;20070;-78
2024/01/26 02:12:52;;;;;;;44.95;32.60;;;;;;;;;;5137816;27;20039;-78
2024/01/26 02:15:18;;;;;;;52.63;34.65;;;;;;;;;;5137810;27;20134;-78
2024/01/26 02:17:44;;;;;;;49.47;34.10;;;;;;;;;;5119435;27;20047;-78
2024/01/26 02:20:11;;;;;;;56.00;36.50;;;;;;;;;;5119185;27;20083;-79
2024/01/26 02:22:40;;;;;;;47.47;33.80;;;;;;;;;;5138220;27;20119;-79
2024/01/26 02:25:07;;;;;;;49.95;34.33;;;;;;;;;;5137394;27;20054;-78
2024/01/26 02:27:35;;;;;;;44.50;31.98;;;;;;;;;;5137625;27;20051;-78
2024/01/26 02:30:01;;;;;;;46.38;33.45;;;;;;;;;;5119766;27;20478;-78
2024/01/26 02:32:27;;;;;;;46.45;33.60;;;;;;;;;;5136606;27;20398;-78
2024/01/26 02:34:53;;;;;;;47.92;32.60;;;;;;;;;;5119920;27;20061;-78
2024/01/26 02:37:19;;;;;;;46.40;33.70;;;;;;;;;;5137273;27;20049;-78
2024/01/26 02:39:45;;;;;;;42.78;32.00;;;;;;;;;;5102276;27;20047;-79
2024/01/26 02:42:11;;;;;;;42.53;32.55;;;;;;;;;;5119179;27;20096;-78
2024/01/26 02:44:37;;;;;;;38.20;27.60;;;;;;;;;;5118774;27;20043;-79
2024/01/26 02:47:04;;;;;;;41.25;30.02;;;;;;;;;;5119034;27;20107;-78
2024/01/26 02:49:32;;;;;;;39.45;29.58;;;;;;;;;;5118977;27;20068;-79
2024/01/26 02:51:58;;;;;;;42.35;31.63;;;;;;;;;;5101938;27;20055;-79
2024/01/26 02:54:24;;;;;;;41.97;31.70;;;;;;;;;;5118909;27;20061;-78
2024/01/26 02:56:50;;;;;;;42.85;31.40;;;;;;;;;;5101970;27;20087;-78
2024/01/26 02:59:16;;;;;;;38.03;30.73;;;;;;;;;;5118358;27;20059;-78
2024/01/26 03:01:42;;;;;;;40.58;30.52;;;;;;;;;;5118317;27;20099;-79
2024/01/26 03:04:08;;;;;;;35.42;28.85;;;;;;;;;;5106547;28;20074;-78
2024/01/26 03:06:34;;;;;;;38.00;29.88;;;;;;;;;;5098316;28;20063;-78
2024/01/26 03:09:00;;;;;;;38.53;29.95;;;;;;;;;;5098637;28;20062;-78
2024/01/26 03:11:36;;;;;;;36.50;28.15;;;;;;;;;;5116495;28;20052;-79
2024/01/26 03:14:02;;;;;;;40.33;30.33;;;;;;;;;;5115505;28;20137;-78
2024/01/26 03:16:28;;;;;;;34.80;28.50;;;;;;;;;;5116364;28;20047;-78
2024/01/26 03:18:54;;;;;;;40.17;32.30;;;;;;;;;;5116009;28;20048;-78
2024/01/26 03:21:20;;;;;;;36.53;29.67;;;;;;;;;;5097987;28;20079;-78
2024/01/26 03:23:46;;;;;;;40.00;29.33;;;;;;;;;;5115799;28;20036;-78
2024/01/26 03:26:12;;;;;;;35.35;26.10;;;;;;;;;;5080958;28;20096;-79
2024/01/26 03:28:38;;;;;;;37.55;30.20;;;;;;;;;;5097785;28;20221;-78
2024/01/26 03:31:06;;;;;;;33.78;26.48;;;;;;;;;;5115973;28;20132;-80
2024/01/26 03:33:32;;;;;;;37.75;30.23;;;;;;;;;;5097428;28;20131;-79
2024/01/26 03:35:58;;;;;;;38.17;31.38;;;;;;;;;;5097367;28;20052;-78
2024/01/26 03:38:24;;;;;;;36.45;29.55;;;;;;;;;;5115633;28;20100;-78
2024/01/26 03:40:50;;;;;;;33.30;27.10;;;;;;;;;;5115449;28;20407;-78
2024/01/26 03:43:16;;;;;;;34.15;27.38;;;;;;;;;;5115486;28;20388;-78
2024/01/26 03:45:42;;;;;;;33.95;29.10;;;;;;;;;;5115391;28;20086;-79
2024/01/26 03:48:08;;;;;;;34.58;27.50;;;;;;;;;;5097476;28;20062;-78
2024/01/26 03:50:34;;;;;;;31.60;26.67;;;;;;;;;;5097140;28;20051;-78
2024/01/26 03:53:00;;;;;;;35.47;26.83;;;;;;;;;;5080470;28;20051;-79
2024/01/26 03:55:26;;;;;;;37.55;28.80;;;;;;;;;;5097704;28;20051;-78
2024/01/26 03:57:52;;;;;;;36.17;28.63;;;;;;;;;;5080226;28;20043;-79
2024/01/26 04:00:19;;;;;;;32.95;26.88;;;;;;;;;;5115547;28;20059;-78
2024/01/26 04:02:45;;;;;;;31.90;26.02;;;;;;;;;;5096608;28;20050;-78
2024/01/26 04:05:11;;;;;;;34.75;28.48;;;;;;;;;;5115111;28;20051;-78
2024/01/26 04:07:37;;;;;;;32.42;24.92;;;;;;;;;;5114847;28;20044;-79
2024/01/26 04:10:04;;;;;;;33.80;26.95;;;;;;;;;;5115010;28;20130;-79
2024/01/26 04:12:30;;;;;;;29.40;24.27;;;;;;;;;;5115176;28;20043;-78
2024/01/26 04:14:56;;;;;;;32.45;25.35;;;;;;;;;;5096827;28;20044;-79
2024/01/26 04:17:22;;;;;;;34.10;25.63;;;;;;;;;;5097008;28;20040;-78
2024/01/26 04:19:48;;;;;;;30.60;23.27;;;;;;;;;;5097233;28;20088;-78
2024/01/26 04:22:14;;;;;;;31.00;25.23;;;;;;;;;;5079909;28;20533;-79
2024/01/26 04:24:40;;;;;;;31.65;25.73;;;;;;;;;;5096504;28;20475;-79
2024/01/26 04:27:07;;;;;;;33.33;24.02;;;;;;;;;;5079041;28;20051;-79
2024/01/26 04:29:33;;;;;;;28.20;23.40;;;;;;;;;;5114662;28;20047;-79
2024/01/26 04:31:59;;;;;;;31.70;24.90;;;;;;;;;;5095929;28;20052;-79
2024/01/26 04:34:25;;;;;;;31.10;25.58;;;;;;;;;;5096746;28;20106;-79
2024/01/26 04:36:51;;;;;;;31.63;25.70;;;;;;;;;;5096608;28;20138;-79
2024/01/26 04:39:17;;;;;;;32.42;26.42;;;;;;;;;;5096634;28;20047;-79
2024/01/26 04:41:44;;;;;;;33.65;27.00;;;;;;;;;;5096415;28;20096;-79
2024/01/26 04:44:10;;;;;;;33.28;27.15;;;;;;;;;;5096349;28;20039;-79
2024/01/26 04:46:36;;;;;;;34.17;26.98;;;;;;;;;;5095947;28;20052;-79
2024/01/26 04:49:02;;;;;;;34.47;29.63;;;;;;;;;;5095591;28;20407;-79
2024/01/26 04:51:28;;;;;;;32.92;28.08;;;;;;;;;;5096312;28;20454;-79
2024/01/26 04:53:54;;;;;;;37.72;30.02;;;;;;;;;;5096871;28;20091;-78
2024/01/26 04:56:21;;;;;;;32.67;28.35;;;;;;;;;;5114322;28;20078;-78
2024/01/26 04:58:47;;;;;;;37.13;28.98;;;;;;;;;;5113921;28;20115;-79
2024/01/26 05:01:14;;;;;;;37.75;28.50;;;;;;;;;;5113654;28;20122;-80
2024/01/26 05:03:40;;;;;;;32.72;27.35;;;;;;;;;;5096059;28;20047;-79
2024/01/26 05:06:06;;;;;;;35.65;28.88;;;;;;;;;;5095967;28;20043;-79
2024/01/26 05:08:32;;;;;;;32.22;25.55;;;;;;;;;;5113996;28;20040;-79
2024/01/26 05:10:58;;;;;;;31.70;27.02;;;;;;;;;;5095933;28;20054;-79
2024/01/26 05:13:24;;;;;;;29.73;25.25;;;;;;;;;;5096045;28;20087;-79
2024/01/26 05:15:50;;;;;;;30.52;24.42;;;;;;;;;;5079290;28;20097;-79
2024/01/26 05:18:16;;;;;;;30.48;25.90;;;;;;;;;;5114014;28;20054;-79
2024/01/26 05:20:43;;;;;;;30.52;23.98;;;;;;;;;;5096105;28;20047;-79
2024/01/26 05:23:09;;;;;;;25.27;21.02;;;;;;;;;;5096431;28;20055;-79
2024/01/26 05:25:35;;;;;;;23.60;20.15;;;;;;;;;;5062591;28;20101;-79
2024/01/26 05:28:01;;;;;;;28.13;23.35;;;;;;;;;;5113855;28;20468;-78
2024/01/26 05:30:27;;;;;;;26.77;22.70;;;;;;;;;;5113996;28;20146;-79
2024/01/26 05:32:53;;;;;;;24.52;20.90;;;;;;;;;;5095583;28;20059;-79
2024/01/26 05:35:21;;;;;;;26.85;22.58;;;;;;;;;;5095966;28;20048;-79
2024/01/26 05:37:47;;;;;;;24.90;21.42;;;;;;;;;;5097861;28;20047;-79
2024/01/26 05:40:13;;;;;;;26.75;20.85;;;;;;;;;;5117947;28;20055;-79
2024/01/26 05:42:39;;;;;;;26.15;21.08;;;;;;;;;;5117963;28;20107;-79
2024/01/26 05:45:06;;;;;;;25.02;20.10;;;;;;;;;;5100089;28;20051;-79
2024/01/26 05:47:32;;;;;;;25.48;19.60;;;;;;;;;;5099872;28;20053;-79
2024/01/26 05:49:58;;;;;;;25.05;21.85;;;;;;;;;;5117808;28;20051;-79
2024/01/26 05:52:24;;;;;;;27.58;19.98;;;;;;;;;;5099565;28;20054;-79
2024/01/26 05:54:50;;;;;;;23.92;20.20;;;;;;;;;;5099660;28;20134;-79
2024/01/26 05:57:16;;;;;;;23.45;21.02;;;;;;;;;;5099651;28;20077;-78
2024/01/26 05:59:42;;;;;;;21.55;19.25;;;;;;;;;;5098871;28;20067;-79
2024/01/26 06:02:08;;;;;;;23.98;20.20;;;;;;;;;;5081808;28;20055;-79
2024/01/26 06:04:34;;;;;;;26.38;20.00;;;;;;;;;;5117417;28;20069;-79
2024/01/26 06:07:01;;;;;;;25.10;20.15;;;;;;;;;;5099450;28;20047;-79
2024/01/26 06:09:27;;;;;;;19.83;17.70;;;;;;;;;;5117375;28;20135;-78
2024/01/26 06:11:53;;;;;;;21.67;18.60;;;;;;;;;;5117180;28;20055;-79
2024/01/26 06:14:20;;;;;;;20.40;17.65;;;;;;;;;;5116929;28;20509;-78
2024/01/26 06:16:49;;;;;;;24.00;18.42;;;;;;;;;;5100073;28;20090;-79
2024/01/26 06:19:15;;;;;;;21.25;17.52;;;;;;;;;;5082409;28;20047;-78
2024/01/26 06:21:41;;;;;;;21.52;17.02;;;;;;;;;;5099179;28;20044;-79
2024/01/26 06:24:07;;;;;;;20.85;15.60;;;;;;;;;;5117084;28;20043;-79
2024/01/26 06:26:33;;;;;;;20.65;16.15;;;;;;;;;;5117381;28;20134;-79
2024/01/26 06:29:00;;;;;;;20.38;16.55;;;;;;;;;;5099060;28;20436;-78
2024/01/26 06:31:26;;;;;;;19.30;16.30;;;;;;;;;;5098350;28;20556;-79
2024/01/26 06:33:52;;;;;;;18.58;14.90;;;;;;;;;;5099308;28;20083;-78
2024/01/26 06:36:18;;;;;;;16.55;14.80;;;;;;;;;;5098911;28;20140;-79
2024/01/26 06:38:45;;;;;;;19.83;16.33;;;;;;;;;;5098894;28;20044;-79
2024/01/26 06:41:11;;;;;;;19.80;14.60;;;;;;;;;;5099423;28;20360;-80
2024/01/26 06:43:37;;;;;;;18.15;13.93;;;;;;;;;;5098690;28;20075;-79
2024/01/26 06:46:03;;;;;;;17.33;15.02;;;;;;;;;;5098823;28;20548;-80
2024/01/26 06:48:29;;;;;;;19.15;15.20;;;;;;;;;;5097701;28;20048;-79
2024/01/26 06:50:55;;;;;;;15.68;13.02;;;;;;;;;;5112923;27;20065;-79
2024/01/26 06:53:22;;;;;;;18.50;14.57;;;;;;;;;;5137089;27;20039;-78
2024/01/26 06:55:48;;;;;;;17.75;14.18;;;;;;;;;;5118927;27;20159;-81
2024/01/26 06:58:14;;;;;;;18.88;13.57;;;;;;;;;;5101884;27;20051;-81
2024/01/26 07:00:40;;;;;;;14.63;12.40;;;;;;;;;;5115187;28;20055;-81
2024/01/26 07:03:06;;;;;;;18.50;13.88;;;;;;;;;;5115774;28;20479;-81
2024/01/26 07:05:32;;;;;;;16.92;12.55;;;;;;;;;;5116808;28;20066;-81
2024/01/26 07:07:58;;;;;;;13.63;12.27;;;;;;;;;;5115370;28;20059;-81
2024/01/26 07:10:25;;;;;;;19.20;14.57;;;;;;;;;;5115307;28;20051;-81
2024/01/26 07:12:51;;;;;;;15.55;13.95;;;;;;;;;;5116140;28;20130;-80
2024/01/26 07:15:17;;;;;;;14.93;13.35;;;;;;;;;;5115237;28;20047;-81
2024/01/26 07:17:43;;;;;;;14.07;11.82;;;;;;;;;;5115116;28;20043;-79
2024/01/26 07:20:09;;;;;;;14.20;12.70;;;;;;;;;;5115950;28;20495;-78
2024/01/26 07:22:35;;;;;;;18.50;12.77;;;;;;;;;;5115979;28;20055;-78
2024/01/26 07:25:03;;;;;;;13.52;11.75;;;;;;;;;;5116057;28;20044;-79
2024/01/26 07:27:29;;;;;;;13.05;11.52;;;;;;;;;;5115920;28;20058;-79
2024/01/26 07:29:55;;;;;;;14.45;12.95;;;;;;;;;;5115435;28;20545;-78
2024/01/26 07:32:21;;;;;;;13.07;11.88;;;;;;;;;;5115365;28;20039;-78
2024/01/26 07:34:47;;;;;;;14.07;11.82;;;;;;;;;;5114843;28;20047;-78
2024/01/26 07:37:13;;;;;;;14.52;12.40;;;;;;;;;;5115674;28;20061;-77
2024/01/26 07:39:39;;;;;;;12.40;11.23;;;;;;;;;;5097666;28;20051;-78
2024/01/26 07:42:05;;;;;;;12.63;11.32;;;;;;;;;;5115789;28;20101;-78
2024/01/26 07:44:31;;;;;;;13.05;11.48;;;;;;;;;;5115535;28;20044;-78
2024/01/26 07:46:57;;;;;;;17.30;12.73;;;;;;;;;;5114257;28;20083;-78
2024/01/26 07:49:23;;;;;;;13.45;11.82;;;;;;;;;;5115369;28;20096;-79
2024/01/26 07:51:49;;;;;;;14.55;11.25;;;;;;;;;;5115191;28;20059;-79
2024/01/26 07:54:15;;;;;;;12.98;11.68;;;;;;;;;;5114946;28;20512;-78
2024/01/26 07:56:41;;;;;;;13.70;12.18;;;;;;;;;;5114152;28;20440;-78
2024/01/26 07:59:07;;;;;;;11.07;10.05;;;;;;;;;;5114099;28;20483;-77
2024/01/26 08:01:34;;;;;;;12.60;11.30;;;;;;;;;;5134415;27;20050;-78
2024/01/26 08:04:00;;;;;;;12.63;11.35;;;;;;;;;;5117424;27;20087;-78
2024/01/26 08:06:26;;;;;;;14.57;12.70;;;;;;;;;;5135699;27;20055;-79
2024/01/26 08:08:52;;;;;;;11.43;10.32;;;;;;;;;;5117564;27;20148;-79
2024/01/26 08:11:21;;;;;;;12.73;11.43;;;;;;;;;;5135461;27;20125;-79
2024/01/26 08:13:47;;;;;;;9.85;8.98;;;;;;;;;;5134992;27;20088;-79
2024/01/26 08:16:16;;;;;;;10.80;9.80;;;;;;;;;;5134856;27;20513;-79
2024/01/26 08:18:48;;;;;;;9.77;8.85;;;;;;;;;;5117252;27;20047;-79
2024/01/26 08:21:14;;;;;;;9.15;8.30;;;;;;;;;;5135513;27;20175;-78
2024/01/26 08:23:40;;;;;;;10.65;9.13;;;;;;;;;;5135443;27;20043;-78
2024/01/26 08:26:07;;;;;;;10.10;9.20;;;;;;;;;;5117196;27;20047;-78
2024/01/26 08:28:33;;;;;;;8.25;7.45;;;;;;;;;;5135818;27;20043;-78
2024/01/26 08:30:59;;;;;;;7.95;7.20;;;;;;;;;;5100151;27;20043;-78
2024/01/26 08:33:25;;;;;;;8.13;7.35;;;;;;;;;;5134815;27;20126;-78
2024/01/26 08:35:51;;;;;;;7.55;6.80;;;;;;;;;;5116839;27;20479;-78
2024/01/26 08:38:17;;;;;;;7.65;6.95;;;;;;;;;;5117050;27;20390;-78
2024/01/26 08:40:43;;;;;;;7.13;6.63;;;;;;;;;;5117231;27;20122;-78
2024/01/26 08:43:09;;;;;;;6.60;6.00;;;;;;;;;;5134931;27;20051;-78
2024/01/26 08:45:35;;;;;;;6.35;5.80;;;;;;;;;;5135289;27;20402;-78
2024/01/26 08:48:01;;;;;;;7.00;6.20;;;;;;;;;;5116317;27;20043;-79
2024/01/26 08:50:27;;;;;;;6.10;5.70;;;;;;;;;;5116776;27;20043;-78
2024/01/26 08:52:53;;;;;;;6.90;6.28;;;;;;;;;;5135139;27;20043;-78
2024/01/26 08:55:20;;;;;;;7.07;6.50;;;;;;;;;;5116736;27;20050;-78
2024/01/26 08:57:48;;;;;;;6.43;5.85;;;;;;;;;;5134816;27;20050;-78
2024/01/26 09:00:15;;;;;;;7.00;6.38;;;;;;;;;;5134817;27;20360;-78
2024/01/26 09:02:41;;;;;;;7.75;7.05;;;;;;;;;;5116600;27;20054;-79
2024/01/26 09:05:09;;;;;;;8.20;7.40;;;;;;;;;;5134643;27;20047;-78
2024/01/26 09:07:35;;;;;;;9.68;8.30;;;;;;;;;;5134721;27;20047;-78
2024/01/26 09:10:03;;;;;;;9.60;8.70;;;;;;;;;;5134717;28;20050;-78
2024/01/26 09:12:29;;;;;;;10.18;8.98;;;;;;;;;;5138326;27;20055;-78
2024/01/26 09:14:55;;;;;;;11.05;9.95;;;;;;;;;;5123210;27;20045;-78
2024/01/26 09:17:21;;;;;;;10.73;9.70;;;;;;;;;;5141480;27;20201;-77
2024/01/26 09:19:47;;;;;;;10.63;9.55;;;;;;;;;;5123818;27;20130;-77
2024/01/26 09:22:13;;;;;;;10.55;9.55;;;;;;;;;;5141452;27;20096;-77
2024/01/26 09:24:39;;;;;;;10.27;9.25;;;;;;;;;;5123054;27;20047;-77
2024/01/26 09:27:05;;;;;;;11.73;10.52;;;;;;;;;;5141466;27;20047;-78
2024/01/26 09:29:32;;;;;;;11.57;10.45;;;;;;;;;;5141386;27;20100;-78
2024/01/26 09:31:59;;;;;;;11.15;9.80;;;;;;;;;;5123071;27;20039;-78
2024/01/26 09:34:25;;;;;;;9.05;8.25;;;;;;;;;;5123216;27;20062;-77
2024/01/26 09:36:51;;;;;;;12.30;9.40;;;;;;;;;;5141315;27;20039;-78
2024/01/26 09:39:18;;;;;;;8.93;7.75;;;;;;;;;;5141391;27;20039;-78
2024/01/26 09:41:44;;;;;;;9.10;8.13;;;;;;;;;;5123078;27;20054;-78
2024/01/26 09:44:10;;;;;;;6.80;3.00;;;;;;;;;;5122863;27;20391;-77
2024/01/26 09:46:37;;;;;;;2.40;0.20;;;;;;;;;;5140889;27;20380;-77
2024/01/26 09:49:07;;;;;;;0.75;0.10;;;;;;;;;;5141533;27;20058;-77
2024/01/26 09:51:33;;;;;;;3.00;0.28;;;;;;;;;;5141194;27;20490;-77
2024/01/26 09:54:00;;;;;;;4.63;0.10;;;;;;;;;;5141572;27;20039;-78
2024/01/26 09:56:29;;;;;;;0.50;0.10;;;;;;;;;;5141489;27;20053;-78
2024/01/26 09:58:55;;;;;;;0.73;0.10;;;;;;;;;;5141095;27;20126;-78
2024/01/26 10:01:22;;;;;;;1.08;0.10;;;;;;;;;;5141258;27;20134;-78
2024/01/26 10:03:48;;;;;;;1.13;0.10;;;;;;;;;;5140591;27;20047;-78
2024/01/26 10:06:15;;;;;;;2.28;0.03;;;;;;;;;;5141029;27;20077;-78
2024/01/26 10:08:41;;;;;;;1.65;0.20;;;;;;;;;;5141030;27;20078;-79
2024/01/26 10:11:07;;;;;;;2.30;0.17;;;;;;;;;;5123675;27;20126;-79
2024/01/26 10:13:33;;;;;;;2.92;0.30;;;;;;;;;;5122643;27;20043;-79
2024/01/26 10:16:09;;;;;;;2.75;0.20;;;;;;;;;;5122919;27;20131;-79
2024/01/26 10:18:43;;;;;;;2.70;0.13;;;;;;;;;;5140875;27;20403;-79
2024/01/26 10:21:10;;;;;;;1.17;0.20;;;;;;;;;;5140920;27;20053;-79
2024/01/26 10:23:36;;;;;;;1.98;0.30;;;;;;;;;;5121204;27;20047;-79
2024/01/26 10:26:02;;;;;;;4.75;0.22;;;;;;;;;;5119648;27;20166;-79
2024/01/26 10:28:29;;;;;;;4.15;0.20;;;;;;;;;;5119337;27;20047;-79
2024/01/26 10:30:55;;;;;;;5.90;0.30;;;;;;;;;;5119450;27;20043;-79
2024/01/26 10:33:25;;;;;;;8.13;0.38;;;;;;;;;;5137300;27;20404;-79
2024/01/26 10:35:51;;;;;;;6.97;0.65;;;;;;;;;;5118942;27;20074;-79
2024/01/26 10:38:17;;;;;;;5.47;0.75;;;;;;;;;;5138026;27;20501;-79
2024/01/26 10:40:44;;;;;;;8.45;0.55;;;;;;;;;;5137288;27;20082;-79
2024/01/26 10:43:11;;;;;;;10.23;0.80;;;;;;;;;;5137265;27;20051;-79
2024/01/26 10:45:38;;;;;;;10.90;1.25;;;;;;;;;;5118734;27;20043;-79
2024/01/26 10:48:11;;;;;;;6.38;0.63;;;;;;;;;;5137219;27;20043;-78
2024/01/26 10:50:37;;;;;;;9.35;0.90;;;;;;;;;;5137157;27;20097;-79
2024/01/26 10:53:05;;;;;;;12.32;0.82;;;;;;;;;;5119031;27;20131;-79
2024/01/26 10:55:31;;;;;;;13.80;0.98;;;;;;;;;;5137026;27;20050;-79
2024/01/26 10:57:58;;;;;;;8.23;1.20;;;;;;;;;;5102052;27;20055;-78
2024/01/26 11:00:24;;;;;;;8.38;1.15;;;;;;;;;;5118523;27;20491;-78
2024/01/26 11:02:50;;;;;;;10.52;1.13;;;;;;;;;;5101524;27;20047;-79
2024/01/26 11:05:17;;;;;;;10.43;1.27;;;;;;;;;;5101128;27;20039;-78
2024/01/26 11:07:44;;;;;;;11.43;1.00;;;;;;;;;;5118654;27;20079;-78
2024/01/26 11:10:30;;;;;;;11.27;1.05;;;;;;;;;;5118660;27;20043;-79
2024/01/26 11:13:01;;;;;;;8.82;0.90;;;;;;;;;;5136825;27;20055;-78
2024/01/26 11:15:27;;;;;;;11.82;1.30;;;;;;;;;;5118602;27;20051;-78
2024/01/26 11:17:56;;;;;;;17.40;1.30;;;;;;;;;;5118225;27;20094;-78
2024/01/26 11:20:25;;;;;;;11.32;1.05;;;;;;;;;;5136632;27;20051;-78
2024/01/26 11:23:01;;;;;;;11.65;1.50;;;;;;;;;;5101310;27;20055;-78
2024/01/26 11:25:33;;;;;;;17.60;1.92;;;;;;;;;;5136584;27;20047;-78
2024/01/26 11:27:59;;;;;;;13.35;1.33;;;;;;;;;;5136529;27;20047;-78
2024/01/26 11:30:26;;;;;;;13.25;1.88;;;;;;;;;;5118279;27;20394;-78
2024/01/26 11:32:52;;;;;;;17.35;1.73;;;;;;;;;;5135973;27;20070;-78
2024/01/26 11:35:21;;;;;;;17.60;1.40;;;;;;;;;;5135761;27;20043;-78
2024/01/26 11:37:49;;;;;;;14.02;1.17;;;;;;;;;;5118111;27;20390;-78
2024/01/26 11:40:15;;;;;;;11.57;1.80;;;;;;;;;;5118053;27;20051;-78
2024/01/26 11:42:41;;;;;;;14.27;1.65;;;;;;;;;;5117943;27;20567;-78
2024/01/26 11:45:08;;;;;;;11.82;1.50;;;;;;;;;;5117704;27;20082;-78
2024/01/26 11:47:38;;;;;;;17.92;2.42;;;;;;;;;;5136039;27;20051;-78
2024/01/26 11:50:05;;;;;;;15.80;1.85;;;;;;;;;;5136191;27;20043;-78
2024/01/26 11:52:34;;;;;;;12.05;1.77;;;;;;;;;;5117737;27;20394;-78
2024/01/26 11:55:00;;;;;;;15.68;2.13;;;;;;;;;;5135956;27;20047;-78
2024/01/26 11:57:27;;;;;;;11.18;1.38;;;;;;;;;;5117764;27;20066;-78
2024/01/26 11:59:53;;;;;;;12.00;1.58;;;;;;;;;;5117472;27;20047;-78
2024/01/26 12:02:19;;;;;;;18.77;1.80;;;;;;;;;;5116941;27;20055;-78
2024/01/26 12:04:46;;;;;;;13.20;1.20;;;;;;;;;;5117366;27;20054;-78
2024/01/26 12:07:12;;;;;;;12.05;1.45;;;;;;;;;;5117576;27;20047;-78
2024/01/26 12:09:38;;;;;;;16.48;1.70;;;;;;;;;;5136137;27;20139;-78
2024/01/26 12:12:08;;;;;;;17.58;1.65;;;;;;;;;;5135570;27;20050;-78
2024/01/26 12:14:34;;;;;;;18.20;2.05;;;;;;;;;;5117489;27;20054;-78
2024/01/26 12:17:01;;;;;;;15.45;1.70;;;;;;;;;;5135514;27;20108;-78
2024/01/26 12:19:27;;;;;;;10.95;1.42;;;;;;;;;;5117088;27;20483;-78
2024/01/26 12:21:53;;;;;;;16.45;1.75;;;;;;;;;;5117740;27;20107;-78
2024/01/26 12:24:20;;;;;;;16.05;1.67;;;;;;;;;;5117057;27;20133;-78
2024/01/26 12:26:46;;;;;;;11.52;1.65;;;;;;;;;;5117106;27;20509;-78
2024/01/26 12:29:12;;;;;;;13.77;1.48;;;;;;;;;;5135810;27;20047;-78
2024/01/26 12:31:38;;;;;;;16.05;1.88;;;;;;;;;;5135165;27;20545;-78
2024/01/26 12:34:12;;;;;;;13.15;1.55;;;;;;;;;;5116713;27;20055;-78
2024/01/26 12:36:38;;;;;;;12.60;1.20;;;;;;;;;;5117642;27;20047;-78
2024/01/26 12:39:05;;;;;;;12.88;1.90;;;;;;;;;;5117068;27;20493;-78
2024/01/26 12:41:32;;;;;;;13.05;1.52;;;;;;;;;;5134722;27;20447;-77
2024/01/26 12:43:59;;;;;;;17.75;2.33;;;;;;;;;;5134623;27;20483;-78
2024/01/26 12:46:25;;;;;;;19.92;3.33;;;;;;;;;;5116888;28;20058;-78
2024/01/26 12:48:51;;;;;;;15.23;1.95;;;;;;;;;;5117240;27;20470;-78
2024/01/26 12:51:18;;;;;;;23.40;3.38;;;;;;;;;;5116924;27;20055;-78
2024/01/26 12:53:44;;;;;;;17.75;1.95;;;;;;;;;;5116716;28;20083;-78
2024/01/26 12:56:11;;;;;;;16.98;1.83;;;;;;;;;;5116748;28;20131;-78
2024/01/26 12:58:37;;;;;;;7.85;1.27;;;;;;;;;;5116675;27;20054;-78
2024/01/26 13:01:03;;;;;;;19.30;2.00;;;;;;;;;;5116489;27;20058;-78
2024/01/26 13:03:29;;;;;;;12.15;1.77;;;;;;;;;;5116153;28;20505;-78
2024/01/26 13:05:55;;;;;;;16.45;2.22;;;;;;;;;;5116753;28;20497;-78
2024/01/26 13:08:22;;;;;;;20.05;3.00;;;;;;;;;;5116635;28;20043;-78
2024/01/26 13:10:48;;;;;;;17.35;2.25;;;;;;;;;;5134783;28;20039;-78
2024/01/26 13:13:14;;;;;;;18.02;3.00;;;;;;;;;;5134746;28;20087;-78
2024/01/26 13:15:40;;;;;;;11.18;1.65;;;;;;;;;;5116702;28;20395;-78
2024/01/26 13:18:07;;;;;;;20.10;2.30;;;;;;;;;;5116598;28;20053;-78
2024/01/26 13:20:33;;;;;;;14.98;1.75;;;;;;;;;;5116540;28;20046;-78
2024/01/26 13:22:59;;;;;;;12.20;1.45;;;;;;;;;;5116520;28;20078;-78
2024/01/26 13:25:26;;;;;;;11.05;1.50;;;;;;;;;;5134615;28;20089;-78
2024/01/26 13:27:52;;;;;;;14.00;1.98;;;;;;;;;;5116470;28;20055;-78
2024/01/26 13:30:19;;;;;;;14.05;1.15;;;;;;;;;;5116408;28;20050;-79
2024/01/26 13:32:47;;;;;;;8.07;1.20;;;;;;;;;;5116072;28;20481;-78
2024/01/26 13:35:14;;;;;;;10.70;1.13;;;;;;;;;;5116641;28;20125;-78
2024/01/26 13:37:41;;;;;;;11.43;1.00;;;;;;;;;;5116105;28;20521;-78
2024/01/26 13:40:07;;;;;;;9.80;1.15;;;;;;;;;;5116951;28;20173;-78
2024/01/26 13:42:33;;;;;;;12.20;0.95;;;;;;;;;;5133645;28;20046;-78
2024/01/26 13:45:00;;;;;;;9.20;0.98;;;;;;;;;;5134283;28;20478;-78
2024/01/26 13:47:26;;;;;;;10.20;1.17;;;;;;;;;;5099593;28;20047;-78
2024/01/26 13:49:55;;;;;;;10.35;1.50;;;;;;;;;;5116100;28;20555;-78
2024/01/26 13:52:21;;;;;;;10.13;0.80;;;;;;;;;;5134448;28;20096;-78
2024/01/26 13:54:47;;;;;;;6.78;0.52;;;;;;;;;;5134278;28;20083;-77
2024/01/26 13:57:15;;;;;;;6.07;0.60;;;;;;;;;;5116143;28;20078;-78
2024/01/26 13:59:41;;;;;;;8.32;1.42;;;;;;;;;;5137835;27;20441;-78
2024/01/26 14:02:08;;;;;;;7.63;0.90;;;;;;;;;;5137780;27;20089;-78
2024/01/26 14:04:35;;;;;;;8.30;0.73;;;;;;;;;;5137720;27;20548;-78
2024/01/26 14:07:01;;;;;;;6.55;0.32;;;;;;;;;;5119954;27;20387;-78
2024/01/26 14:09:27;;;;;;;5.72;0.55;;;;;;;;;;5119874;27;20046;-78
2024/01/26 14:11:53;;;;;;;6.65;0.50;;;;;;;;;;5137998;27;20051;-78
2024/01/26 14:14:22;;;;;;;7.28;0.30;;;;;;;;;;5120123;27;20483;-78
2024/01/26 14:16:49;;;;;;;3.42;0.43;;;;;;;;;;5119403;27;20058;-78
2024/01/26 14:19:15;;;;;;;5.13;0.35;;;;;;;;;;5102687;27;20087;-78
2024/01/26 14:21:41;;;;;;;4.15;0.30;;;;;;;;;;5119675;27;20069;-78